sensor_id;sensor_type;location;lat;lon;timestamp;pressure;altitude;pressure_sealevel;temperature;humidity
40384;BME280;26097;42.366;23.818;2024-01-15T00:00:08;93449.25;;;-5.29;100.00
40384;BME280;26097;42.366;23.818;2024-01-15T00:03:08;93444.28;;;-5.36;100.00
40384;BME280;26097;42.366;23.818;2024-01-15T00:06:08;93441.63;;;-5.29;100.00
40384;BME280;26097;42.366;23.818;2024-01-15T00:09:08;93443.41;;;-5.35;100.00
40384;BME280;26097;42.366;23.818;2024-01-15T00:12:08;93446.22;;;-5.44;100.00
40384;BME280;26097;42.366;23.818;2024-01-15T00:15:08;93442.09;;;-5.48;100.00
40384;BME280;26097;42.366;23.818;2024-01-15T00:18:08;93437.00;;;-5.48;100.00
40384;BME280;26097;42.366;23.818;2024-01-15T00:21:07;93442.25;;;-5.56;100.00
40384;BME280;26097;42.366;23.818;2024-01-15T00:24:07;93434.56;;;-5.53;100.00
40384;BME280;26097;42.366;23.818;2024-01-15T00:27:06;93446.41;;;-5.53;100.00
40384;BME280;26097;42.366;23.818;2024-01-15T00:30:06;93444.03;;;-5.60;100.00
40384;BME280;26097;42.366;23.818;2024-01-15T00:33:05;93445.97;;;-5.71;100.00
40384;BME280;26097;42.366;23.818;2024-01-15T00:36:05;93445.31;;;-5.78;100.00
40384;BME280;26097;42.366;23.818;2024-01-15T00:39:04;93444.38;;;-5.74;100.00
40384;BME280;26097;42.366;23.818;2024-01-15T00:42:04;93443.50;;;-5.72;100.00
40384;BME280;26097;42.366;23.818;2024-01-15T00:45:04;93444.28;;;-5.69;100.00
40384;BME280;26097;42.366;23.818;2024-01-15T00:48:04;93447.00;;;-5.77;100.00
40384;BME280;26097;42.366;23.818;2024-01-15T00:51:04;93430.09;;;-5.78;100.00
40384;BME280;26097;42.366;23.818;2024-01-15T00:54:04;93439.31;;;-5.75;100.00
40384;BME280;26097;42.366;23.818;2024-01-15T00:57:03;93444.50;;;-5.80;100.00
40384;BME280;26097;42.366;23.818;2024-01-15T01:00:03;93433.00;;;-5.95;100.00
40384;BME280;26097;42.366;23.818;2024-01-15T01:03:03;93432.19;;;-5.95;100.00
40384;BME280;26097;42.366;23.818;2024-01-15T01:06:02;93437.19;;;-5.92;100.00
40384;BME280;26097;42.366;23.818;2024-01-15T01:09:02;93435.53;;;-5.95;100.00
40384;BME280;26097;42.366;23.818;2024-01-15T01:12:01;93429.16;;;-6.10;100.00
40384;BME280;26097;42.366;23.818;2024-01-15T01:15:01;93431.53;;;-6.04;100.00
40384;BME280;26097;42.366;23.818;2024-01-15T01:18:00;93430.50;;;-5.96;100.00
40384;BME280;26097;42.366;23.818;2024-01-15T01:21:00;93432.34;;;-6.02;100.00
40384;BME280;26097;42.366;23.818;2024-01-15T01:23:59;93436.59;;;-6.02;100.00
40384;BME280;26097;42.366;23.818;2024-01-15T01:26:59;93435.78;;;-6.04;100.00
40384;BME280;26097;42.366;23.818;2024-01-15T01:29:58;93433.84;;;-5.94;100.00
40384;BME280;26097;42.366;23.818;2024-01-15T01:32:57;93438.25;;;-6.01;100.00
40384;BME280;26097;42.366;23.818;2024-01-15T01:35:57;93428.25;;;-6.07;100.00
40384;BME280;26097;42.366;23.818;2024-01-15T01:38:56;93421.69;;;-6.18;100.00
40384;BME280;26097;42.366;23.818;2024-01-15T01:41:56;93424.22;;;-6.16;100.00
40384;BME280;26097;42.366;23.818;2024-01-15T01:44:55;93420.81;;;-6.15;100.00
40384;BME280;26097;42.366;23.818;2024-01-15T01:47:54;93420.03;;;-6.19;100.00
40384;BME280;26097;42.366;23.818;2024-01-15T01:50:55;93424.31;;;-6.21;100.00
40384;BME280;26097;42.366;23.818;2024-01-15T01:53:56;93425.84;;;-6.13;100.00
40384;BME280;26097;42.366;23.818;2024-01-15T01:56:56;93419.88;;;-6.12;100.00
40384;BME280;26097;42.366;23.818;2024-01-15T01:59:57;93415.75;;;-6.17;100.00
40384;BME280;26097;42.366;23.818;2024-01-15T02:02:57;93414.75;;;-6.09;100.00
40384;BME280;26097;42.366;23.818;2024-01-15T02:05:56;93408.94;;;-6.14;100.00
40384;BME280;26097;42.366;23.818;2024-01-15T02:08:55;93416.44;;;-6.08;100.00
40384;BME280;26097;42.366;23.818;2024-01-15T02:11:55;93418.38;;;-6.20;100.00
40384;BME280;26097;42.366;23.818;2024-01-15T02:14:55;93410.59;;;-6.12;100.00
40384;BME280;26097;42.366;23.818;2024-01-15T02:20:56;93400.34;;;-6.07;100.00
40384;BME280;26097;42.366;23.818;2024-01-15T02:23:56;93391.84;;;-6.06;100.00
40384;BME280;26097;42.366;23.818;2024-01-15T02:26:55;93394.41;;;-6.06;100.00
40384;BME280;26097;42.366;23.818;2024-01-15T02:29:55;93390.16;;;-6.06;100.00
40384;BME280;26097;42.366;23.818;2024-01-15T02:32:55;93391.59;;;-5.97;100.00
40384;BME280;26097;42.366;23.818;2024-01-15T02:35:54;93390.81;;;-6.00;100.00
40384;BME280;26097;42.366;23.818;2024-01-15T02:38:54;93388.66;;;-6.14;100.00
40384;BME280;26097;42.366;23.818;2024-01-15T02:41:53;93388.56;;;-6.11;100.00
40384;BME280;26097;42.366;23.818;2024-01-15T02:44:55;93396.00;;;-6.02;100.00
40384;BME280;26097;42.366;23.818;2024-01-15T02:47:54;93392.66;;;-6.04;100.00
40384;BME280;26097;42.366;23.818;2024-01-15T02:50:54;93394.31;;;-6.03;100.00
40384;BME280;26097;42.366;23.818;2024-01-15T02:53:53;93380.75;;;-6.02;100.00
40384;BME280;26097;42.366;23.818;2024-01-15T02:56:53;93371.19;;;-5.92;100.00
40384;BME280;26097;42.366;23.818;2024-01-15T02:59:52;93368.50;;;-5.86;100.00
40384;BME280;26097;42.366;23.818;2024-01-15T03:02:51;93368.75;;;-5.97;100.00
40384;BME280;26097;42.366;23.818;2024-01-15T03:05:51;93365.44;;;-5.99;100.00
40384;BME280;26097;42.366;23.818;2024-01-15T03:08:50;93363.69;;;-5.97;100.00
40384;BME280;26097;42.366;23.818;2024-01-15T03:11:49;93359.31;;;-5.92;100.00
40384;BME280;26097;42.366;23.818;2024-01-15T03:14:49;93360.00;;;-5.83;100.00
40384;BME280;26097;42.366;23.818;2024-01-15T03:17:48;93351.91;;;-5.65;100.00
40384;BME280;26097;42.366;23.818;2024-01-15T03:20:47;93359.28;;;-5.55;100.00
40384;BME280;26097;42.366;23.818;2024-01-15T03:23:47;93348.31;;;-5.56;100.00
40384;BME280;26097;42.366;23.818;2024-01-15T03:26:46;93350.88;;;-5.57;100.00
40384;BME280;26097;42.366;23.818;2024-01-15T03:29:45;93345.69;;;-5.53;100.00
40384;BME280;26097;42.366;23.818;2024-01-15T03:32:45;93341.59;;;-5.25;100.00
40384;BME280;26097;42.366;23.818;2024-01-15T03:35:46;93341.41;;;-5.19;100.00
40384;BME280;26097;42.366;23.818;2024-01-15T03:38:45;93340.53;;;-5.51;100.00
40384;BME280;26097;42.366;23.818;2024-01-15T03:41:45;93344.84;;;-5.86;100.00
40384;BME280;26097;42.366;23.818;2024-01-15T03:44:44;93339.00;;;-5.90;100.00
40384;BME280;26097;42.366;23.818;2024-01-15T03:47:43;93325.19;;;-5.80;100.00
40384;BME280;26097;42.366;23.818;2024-01-15T03:50:43;93312.66;;;-5.86;100.00
40384;BME280;26097;42.366;23.818;2024-01-15T03:53:42;93321.00;;;-5.81;100.00
40384;BME280;26097;42.366;23.818;2024-01-15T03:56:42;93313.75;;;-5.62;100.00
40384;BME280;26097;42.366;23.818;2024-01-15T03:59:41;93321.31;;;-5.60;100.00
40384;BME280;26097;42.366;23.818;2024-01-15T04:02:41;93320.78;;;-5.73;100.00
40384;BME280;26097;42.366;23.818;2024-01-15T04:05:40;93316.84;;;-5.83;100.00
40384;BME280;26097;42.366;23.818;2024-01-15T04:08:39;93322.41;;;-6.02;100.00
40384;BME280;26097;42.366;23.818;2024-01-15T04:11:39;93329.75;;;-5.93;100.00
40384;BME280;26097;42.366;23.818;2024-01-15T04:14:39;93323.84;;;-5.93;100.00
40384;BME280;26097;42.366;23.818;2024-01-15T04:17:38;93326.75;;;-6.07;100.00
40384;BME280;26097;42.366;23.818;2024-01-15T04:20:38;93334.56;;;-6.17;100.00
40384;BME280;26097;42.366;23.818;2024-01-15T04:23:39;93325.22;;;-6.14;100.00
40384;BME280;26097;42.366;23.818;2024-01-15T04:26:38;93326.19;;;-6.19;100.00
40384;BME280;26097;42.366;23.818;2024-01-15T04:29:38;93330.53;;;-6.24;100.00
40384;BME280;26097;42.366;23.818;2024-01-15T04:32:38;93316.31;;;-6.31;100.00
40384;BME280;26097;42.366;23.818;2024-01-15T04:35:37;93317.19;;;-6.32;100.00
40384;BME280;26097;42.366;23.818;2024-01-15T04:38:37;93308.88;;;-6.39;100.00
40384;BME280;26097;42.366;23.818;2024-01-15T04:41:36;93309.66;;;-6.35;100.00
40384;BME280;26097;42.366;23.818;2024-01-15T04:44:36;93316.63;;;-6.43;100.00
40384;BME280;26097;42.366;23.818;2024-01-15T04:47:35;93314.16;;;-6.47;100.00
40384;BME280;26097;42.366;23.818;2024-01-15T04:50:35;93305.97;;;-6.60;100.00
40384;BME280;26097;42.366;23.818;2024-01-15T04:53:35;93286.56;;;-6.61;100.00
40384;BME280;26097;42.366;23.818;2024-01-15T04:56:34;93290.72;;;-6.58;100.00
40384;BME280;26097;42.366;23.818;2024-01-15T04:59:34;93304.91;;;-6.49;100.00
40384;BME280;26097;42.366;23.818;2024-01-15T05:02:33;93294.59;;;-6.41;100.00
40384;BME280;26097;42.366;23.818;2024-01-15T05:05:33;93309.28;;;-6.56;100.00
40384;BME280;26097;42.366;23.818;2024-01-15T05:08:32;93309.53;;;-6.67;100.00
40384;BME280;26097;42.366;23.818;2024-01-15T05:11:32;93310.38;;;-6.66;100.00
40384;BME280;26097;42.366;23.818;2024-01-15T05:14:31;93299.44;;;-6.70;100.00
40384;BME280;26097;42.366;23.818;2024-01-15T05:17:30;93303.47;;;-6.61;100.00
40384;BME280;26097;42.366;23.818;2024-01-15T05:20:30;93295.56;;;-6.49;100.00
40384;BME280;26097;42.366;23.818;2024-01-15T05:23:31;93294.06;;;-6.56;100.00
40384;BME280;26097;42.366;23.818;2024-01-15T05:26:30;93293.44;;;-6.66;100.00
40384;BME280;26097;42.366;23.818;2024-01-15T05:29:30;93283.91;;;-6.56;100.00
40384;BME280;26097;42.366;23.818;2024-01-15T05:32:29;93290.97;;;-6.67;100.00
40384;BME280;26097;42.366;23.818;2024-01-15T05:35:29;93296.16;;;-6.74;100.00
40384;BME280;26097;42.366;23.818;2024-01-15T05:38:28;93293.69;;;-6.77;100.00
40384;BME280;26097;42.366;23.818;2024-01-15T05:41:28;93297.94;;;-6.79;100.00
40384;BME280;26097;42.366;23.818;2024-01-15T05:44:27;93286.22;;;-6.83;100.00
40384;BME280;26097;42.366;23.818;2024-01-15T05:47:26;93292.00;;;-6.76;100.00
40384;BME280;26097;42.366;23.818;2024-01-15T05:50:26;93282.75;;;-6.79;100.00
40384;BME280;26097;42.366;23.818;2024-01-15T05:53:25;93269.59;;;-6.58;100.00
40384;BME280;26097;42.366;23.818;2024-01-15T05:56:25;93277.28;;;-6.62;100.00
40384;BME280;26097;42.366;23.818;2024-01-15T05:59:24;93285.13;;;-6.71;100.00
40384;BME280;26097;42.366;23.818;2024-01-15T06:02:24;93287.97;;;-6.85;100.00
40384;BME280;26097;42.366;23.818;2024-01-15T06:05:24;93284.50;;;-6.81;100.00
40384;BME280;26097;42.366;23.818;2024-01-15T06:08:23;93267.28;;;-6.66;100.00
40384;BME280;26097;42.366;23.818;2024-01-15T06:11:23;93278.78;;;-6.53;100.00
40384;BME280;26097;42.366;23.818;2024-01-15T06:14:28;93277.38;;;-6.30;100.00
40384;BME280;26097;42.366;23.818;2024-01-15T06:17:27;93272.81;;;-6.15;100.00
40384;BME280;26097;42.366;23.818;2024-01-15T06:20:27;93264.72;;;-5.97;100.00
40384;BME280;26097;42.366;23.818;2024-01-15T06:23:26;93271.34;;;-5.91;100.00
40384;BME280;26097;42.366;23.818;2024-01-15T06:26:25;93271.09;;;-5.82;100.00
40384;BME280;26097;42.366;23.818;2024-01-15T06:29:25;93263.94;;;-5.67;100.00
40384;BME280;26097;42.366;23.818;2024-01-15T06:32:25;93254.28;;;-5.54;100.00
40384;BME280;26097;42.366;23.818;2024-01-15T06:35:24;93259.75;;;-5.37;100.00
40384;BME280;26097;42.366;23.818;2024-01-15T06:38:24;93257.63;;;-5.21;100.00
40384;BME280;26097;42.366;23.818;2024-01-15T06:41:24;93257.22;;;-5.07;100.00
40384;BME280;26097;42.366;23.818;2024-01-15T06:44:24;93240.97;;;-5.01;100.00
40384;BME280;26097;42.366;23.818;2024-01-15T06:47:24;93249.69;;;-4.81;100.00
40384;BME280;26097;42.366;23.818;2024-01-15T06:50:23;93248.28;;;-4.63;100.00
40384;BME280;26097;42.366;23.818;2024-01-15T06:53:23;93243.53;;;-4.47;100.00
40384;BME280;26097;42.366;23.818;2024-01-15T06:56:22;93248.78;;;-4.25;100.00
40384;BME280;26097;42.366;23.818;2024-01-15T06:59:22;93248.94;;;-4.03;100.00
40384;BME280;26097;42.366;23.818;2024-01-15T07:02:21;93248.09;;;-3.78;100.00
40384;BME280;26097;42.366;23.818;2024-01-15T07:05:21;93250.56;;;-3.51;100.00
40384;BME280;26097;42.366;23.818;2024-01-15T07:08:20;93247.13;;;-3.26;100.00
40384;BME280;26097;42.366;23.818;2024-01-15T07:11:19;93246.97;;;-2.97;100.00
40384;BME280;26097;42.366;23.818;2024-01-15T07:14:19;93255.16;;;-2.67;100.00
40384;BME280;26097;42.366;23.818;2024-01-15T07:17:18;93256.38;;;-2.31;100.00
40384;BME280;26097;42.366;23.818;2024-01-15T07:20:18;93267.75;;;-1.97;100.00
40384;BME280;26097;42.366;23.818;2024-01-15T07:23:18;93269.56;;;-1.78;100.00
40384;BME280;26097;42.366;23.818;2024-01-15T07:26:17;93269.56;;;-1.58;100.00
40384;BME280;26097;42.366;23.818;2024-01-15T07:29:17;93267.78;;;-1.35;100.00
40384;BME280;26097;42.366;23.818;2024-01-15T07:32:16;93272.84;;;-1.14;100.00
40384;BME280;26097;42.366;23.818;2024-01-15T07:35:16;93263.88;;;-1.04;100.00
40384;BME280;26097;42.366;23.818;2024-01-15T07:38:16;93263.19;;;-0.88;100.00
40384;BME280;26097;42.366;23.818;2024-01-15T07:41:15;93264.97;;;-0.71;100.00
40384;BME280;26097;42.366;23.818;2024-01-15T07:44:14;93264.47;;;-0.60;100.00
40384;BME280;26097;42.366;23.818;2024-01-15T07:47:14;93268.44;;;-0.53;100.00
40384;BME280;26097;42.366;23.818;2024-01-15T07:50:13;93273.22;;;-0.45;100.00
40384;BME280;26097;42.366;23.818;2024-01-15T07:53:12;93273.13;;;-0.44;100.00
40384;BME280;26097;42.366;23.818;2024-01-15T07:56:12;93282.94;;;-0.34;100.00
40384;BME280;26097;42.366;23.818;2024-01-15T07:59:11;93295.41;;;-0.26;100.00
40384;BME280;26097;42.366;23.818;2024-01-15T08:02:11;93297.06;;;-0.25;100.00
40384;BME280;26097;42.366;23.818;2024-01-15T08:05:10;93303.44;;;-0.34;100.00
40384;BME280;26097;42.366;23.818;2024-01-15T08:08:09;93289.88;;;-0.36;100.00
40384;BME280;26097;42.366;23.818;2024-01-15T08:11:09;93269.66;;;-0.43;100.00
40384;BME280;26097;42.366;23.818;2024-01-15T08:14:09;93272.72;;;-0.34;100.00
40384;BME280;26097;42.366;23.818;2024-01-15T08:17:09;93303.19;;;-0.10;100.00
40384;BME280;26097;42.366;23.818;2024-01-15T08:20:08;93307.38;;;0.10;100.00
40384;BME280;26097;42.366;23.818;2024-01-15T08:23:09;93313.50;;;0.25;100.00
40384;BME280;26097;42.366;23.818;2024-01-15T08:26:08;93315.75;;;0.49;100.00
40384;BME280;26097;42.366;23.818;2024-01-15T08:29:08;93321.03;;;0.63;100.00
40384;BME280;26097;42.366;23.818;2024-01-15T08:32:07;93317.25;;;0.70;100.00
40384;BME280;26097;42.366;23.818;2024-01-15T08:35:06;93315.78;;;1.00;100.00
40384;BME280;26097;42.366;23.818;2024-01-15T08:38:06;93311.28;;;1.21;100.00
40384;BME280;26097;42.366;23.818;2024-01-15T08:41:05;93295.53;;;1.27;100.00
40384;BME280;26097;42.366;23.818;2024-01-15T08:44:05;93277.25;;;1.34;100.00
40384;BME280;26097;42.366;23.818;2024-01-15T08:47:04;93284.38;;;1.45;100.00
40384;BME280;26097;42.366;23.818;2024-01-15T08:50:04;93292.56;;;1.51;100.00
40384;BME280;26097;42.366;23.818;2024-01-15T08:53:04;93291.25;;;1.60;100.00
40384;BME280;26097;42.366;23.818;2024-01-15T08:56:03;93280.81;;;1.79;100.00
40384;BME280;26097;42.366;23.818;2024-01-15T08:59:03;93280.66;;;1.82;100.00
40384;BME280;26097;42.366;23.818;2024-01-15T09:02:02;93278.81;;;1.84;100.00
40384;BME280;26097;42.366;23.818;2024-01-15T09:05:02;93258.91;;;2.04;100.00
40384;BME280;26097;42.366;23.818;2024-01-15T09:08:03;93256.00;;;1.94;100.00
40384;BME280;26097;42.366;23.818;2024-01-15T09:11:03;93251.31;;;2.17;100.00
40384;BME280;26097;42.366;23.818;2024-01-15T09:14:02;93248.38;;;2.23;100.00
40384;BME280;26097;42.366;23.818;2024-01-15T09:17:04;93227.31;;;2.02;100.00
40384;BME280;26097;42.366;23.818;2024-01-15T09:20:03;93223.78;;;1.89;100.00
40384;BME280;26097;42.366;23.818;2024-01-15T09:23:06;93204.47;;;1.81;100.00
40384;BME280;26097;42.366;23.818;2024-01-15T09:26:08;93194.53;;;1.75;100.00
40384;BME280;26097;42.366;23.818;2024-01-15T09:29:07;93193.97;;;1.70;100.00
40384;BME280;26097;42.366;23.818;2024-01-15T09:32:06;93189.34;;;1.61;100.00
40384;BME280;26097;42.366;23.818;2024-01-15T09:35:06;93192.16;;;1.56;100.00
40384;BME280;26097;42.366;23.818;2024-01-15T09:38:06;93194.25;;;1.49;100.00
40384;BME280;26097;42.366;23.818;2024-01-15T09:41:05;93183.06;;;1.50;100.00
40384;BME280;26097;42.366;23.818;2024-01-15T09:44:05;93172.31;;;1.74;100.00
40384;BME280;26097;42.366;23.818;2024-01-15T09:47:06;93169.47;;;2.09;100.00
40384;BME280;26097;42.366;23.818;2024-01-15T09:50:06;93168.97;;;2.19;100.00
40384;BME280;26097;42.366;23.818;2024-01-15T09:53:05;93163.63;;;2.22;100.00
40384;BME280;26097;42.366;23.818;2024-01-15T09:56:08;93187.91;;;2.47;100.00
40384;BME280;26097;42.366;23.818;2024-01-15T09:59:09;93181.88;;;2.62;100.00
40384;BME280;26097;42.366;23.818;2024-01-15T10:02:09;93193.25;;;2.43;100.00
40384;BME280;26097;42.366;23.818;2024-01-15T10:05:13;93198.47;;;2.56;100.00
40384;BME280;26097;42.366;23.818;2024-01-15T10:08:14;93189.50;;;2.49;100.00
40384;BME280;26097;42.366;23.818;2024-01-15T10:11:13;93187.38;;;2.41;100.00
40384;BME280;26097;42.366;23.818;2024-01-15T10:14:13;93172.44;;;2.32;100.00
40384;BME280;26097;42.366;23.818;2024-01-15T10:17:13;93161.81;;;2.24;100.00
40384;BME280;26097;42.366;23.818;2024-01-15T10:20:14;93165.81;;;1.99;100.00
40384;BME280;26097;42.366;23.818;2024-01-15T10:23:14;93152.00;;;1.85;100.00
40384;BME280;26097;42.366;23.818;2024-01-15T10:26:13;93140.25;;;1.81;100.00
40384;BME280;26097;42.366;23.818;2024-01-15T10:29:14;93136.81;;;1.81;100.00
40384;BME280;26097;42.366;23.818;2024-01-15T10:32:14;93114.75;;;2.07;100.00
40384;BME280;26097;42.366;23.818;2024-01-15T10:35:13;93122.66;;;2.33;100.00
40384;BME280;26097;42.366;23.818;2024-01-15T10:38:13;93121.13;;;2.60;100.00
40384;BME280;26097;42.366;23.818;2024-01-15T10:41:12;93122.69;;;2.77;100.00
40384;BME280;26097;42.366;23.818;2024-01-15T10:44:12;93110.34;;;2.82;100.00
40384;BME280;26097;42.366;23.818;2024-01-15T10:47:12;93100.44;;;2.76;100.00
40384;BME280;26097;42.366;23.818;2024-01-15T10:50:11;93104.69;;;2.62;100.00
40384;BME280;26097;42.366;23.818;2024-01-15T10:53:14;93107.97;;;2.64;97.90
40384;BME280;26097;42.366;23.818;2024-01-15T10:56:13;93099.59;;;2.75;99.40
40384;BME280;26097;42.366;23.818;2024-01-15T10:59:13;93087.91;;;2.84;96.81
40384;BME280;26097;42.366;23.818;2024-01-15T11:02:14;93080.50;;;3.07;95.60
40384;BME280;26097;42.366;23.818;2024-01-15T11:05:13;93077.41;;;3.02;91.10
40384;BME280;26097;42.366;23.818;2024-01-15T11:08:17;93081.19;;;3.23;90.03
40384;BME280;26097;42.366;23.818;2024-01-15T11:11:17;93084.44;;;3.40;90.81
40384;BME280;26097;42.366;23.818;2024-01-15T11:14:39;93087.75;;;3.42;85.17
40384;BME280;26097;42.366;23.818;2024-01-15T11:17:58;93073.16;;;3.55;84.69
40384;BME280;26097;42.366;23.818;2024-01-15T11:24:37;93057.53;;;4.23;81.96
40384;BME280;26097;42.366;23.818;2024-01-15T11:27:40;93058.84;;;4.29;82.37
40384;BME280;26097;42.366;23.818;2024-01-15T11:30:43;93048.88;;;4.24;83.84
40384;BME280;26097;42.366;23.818;2024-01-15T11:33:48;93044.09;;;4.31;84.72
40384;BME280;26097;42.366;23.818;2024-01-15T11:39:47;93043.38;;;4.92;83.76
40384;BME280;26097;42.366;23.818;2024-01-15T11:42:48;93033.69;;;5.32;80.43
40384;BME280;26097;42.366;23.818;2024-01-15T11:45:51;93025.31;;;5.52;81.30
40384;BME280;26097;42.366;23.818;2024-01-15T11:48:58;93020.16;;;5.64;78.13
40384;BME280;26097;42.366;23.818;2024-01-15T11:52:04;93025.06;;;5.55;76.99
40384;BME280;26097;42.366;23.818;2024-01-15T11:58:16;93034.25;;;5.60;78.07
40384;BME280;26097;42.366;23.818;2024-01-15T12:01:16;93047.63;;;5.53;78.74
40384;BME280;26097;42.366;23.818;2024-01-15T12:04:15;93044.38;;;5.63;79.07
40384;BME280;26097;42.366;23.818;2024-01-15T12:07:16;93036.66;;;5.85;75.79
40384;BME280;26097;42.366;23.818;2024-01-15T12:10:18;93029.94;;;6.30;75.37
40384;BME280;26097;42.366;23.818;2024-01-15T12:13:19;93021.47;;;6.51;75.61
40384;BME280;26097;42.366;23.818;2024-01-15T12:16:19;93024.28;;;6.59;74.76
40384;BME280;26097;42.366;23.818;2024-01-15T12:19:19;93026.16;;;6.57;74.17
40384;BME280;26097;42.366;23.818;2024-01-15T12:22:18;93018.41;;;6.46;75.42
40384;BME280;26097;42.366;23.818;2024-01-15T12:25:19;93009.69;;;6.47;76.11
40384;BME280;26097;42.366;23.818;2024-01-15T12:28:18;93002.19;;;6.32;72.69
40384;BME280;26097;42.366;23.818;2024-01-15T12:31:19;92996.06;;;6.22;75.40
40384;BME280;26097;42.366;23.818;2024-01-15T12:34:18;93009.69;;;6.24;76.39
40384;BME280;26097;42.366;23.818;2024-01-15T12:37:18;93004.75;;;6.21;77.47
40384;BME280;26097;42.366;23.818;2024-01-15T12:40:19;92994.38;;;5.98;74.71
40384;BME280;26097;42.366;23.818;2024-01-15T12:43:18;92996.66;;;5.67;74.36
40384;BME280;26097;42.366;23.818;2024-01-15T12:46:18;92994.78;;;5.69;75.43
40384;BME280;26097;42.366;23.818;2024-01-15T12:49:18;92999.00;;;5.58;74.84
40384;BME280;26097;42.366;23.818;2024-01-15T12:52:19;92998.09;;;5.35;77.23
40384;BME280;26097;42.366;23.818;2024-01-15T12:55:20;92991.34;;;5.21;77.92
40384;BME280;26097;42.366;23.818;2024-01-15T12:58:19;92989.47;;;5.23;78.47
40384;BME280;26097;42.366;23.818;2024-01-15T13:01:19;92987.59;;;5.25;77.30
40384;BME280;26097;42.366;23.818;2024-01-15T13:04:22;92984.06;;;5.15;75.20
40384;BME280;26097;42.366;23.818;2024-01-15T13:07:22;92987.97;;;4.96;77.10
40384;BME280;26097;42.366;23.818;2024-01-15T13:10:21;92990.47;;;4.85;76.25
40384;BME280;26097;42.366;23.818;2024-01-15T13:13:21;92983.50;;;4.74;75.94
40384;BME280;26097;42.366;23.818;2024-01-15T13:16:20;92985.47;;;4.70;76.69
40384;BME280;26097;42.366;23.818;2024-01-15T13:19:20;92976.25;;;4.55;74.59
40384;BME280;26097;42.366;23.818;2024-01-15T13:22:22;92962.69;;;4.64;76.20
40384;BME280;26097;42.366;23.818;2024-01-15T13:25:22;92970.25;;;4.54;76.90
40384;BME280;26097;42.366;23.818;2024-01-15T13:28:21;92979.59;;;4.44;77.64
40384;BME280;26097;42.366;23.818;2024-01-15T13:31:20;92963.72;;;4.37;75.16
40384;BME280;26097;42.366;23.818;2024-01-15T13:34:20;92954.44;;;4.22;78.39
40384;BME280;26097;42.366;23.818;2024-01-15T13:37:19;92956.88;;;3.99;78.64
40384;BME280;26097;42.366;23.818;2024-01-15T13:40:19;92951.78;;;4.10;79.25
40384;BME280;26097;42.366;23.818;2024-01-15T13:43:19;92954.16;;;4.13;78.52
40384;BME280;26097;42.366;23.818;2024-01-15T13:46:19;92948.63;;;3.94;79.53
40384;BME280;26097;42.366;23.818;2024-01-15T13:49:19;92945.72;;;3.85;79.66
40384;BME280;26097;42.366;23.818;2024-01-15T13:52:18;92953.56;;;3.71;80.72
40384;BME280;26097;42.366;23.818;2024-01-15T13:55:17;92959.34;;;3.49;81.82
40384;BME280;26097;42.366;23.818;2024-01-15T13:58:17;92965.94;;;3.40;77.02
40384;BME280;26097;42.366;23.818;2024-01-15T14:01:17;92954.00;;;3.39;80.68
40384;BME280;26097;42.366;23.818;2024-01-15T14:04:17;92949.34;;;3.31;81.41
40384;BME280;26097;42.366;23.818;2024-01-15T14:07:16;92931.72;;;3.25;81.71
40384;BME280;26097;42.366;23.818;2024-01-15T14:10:15;92944.25;;;3.17;82.81
40384;BME280;26097;42.366;23.818;2024-01-15T14:13:15;92944.69;;;3.10;83.04
40384;BME280;26097;42.366;23.818;2024-01-15T14:16:14;92938.09;;;3.06;82.90
40384;BME280;26097;42.366;23.818;2024-01-15T14:19:14;92942.59;;;3.03;83.43
40384;BME280;26097;42.366;23.818;2024-01-15T14:22:14;92944.66;;;2.97;84.75
40384;BME280;26097;42.366;23.818;2024-01-15T14:25:13;92942.66;;;2.88;84.90
40384;BME280;26097;42.366;23.818;2024-01-15T14:28:13;92942.94;;;2.83;85.09
40384;BME280;26097;42.366;23.818;2024-01-15T14:31:12;92950.44;;;2.74;85.08
40384;BME280;26097;42.366;23.818;2024-01-15T14:34:11;92946.81;;;2.63;86.49
40384;BME280;26097;42.366;23.818;2024-01-15T14:37:11;92942.06;;;2.57;87.13
40384;BME280;26097;42.366;23.818;2024-01-15T14:40:10;92939.97;;;2.49;88.37
40384;BME280;26097;42.366;23.818;2024-01-15T14:43:10;92930.88;;;2.43;88.46
40384;BME280;26097;42.366;23.818;2024-01-15T14:46:10;92934.78;;;2.36;90.34
40384;BME280;26097;42.366;23.818;2024-01-15T14:49:10;92941.22;;;2.29;92.52
40384;BME280;26097;42.366;23.818;2024-01-15T14:52:09;92934.28;;;2.17;93.58
40384;BME280;26097;42.366;23.818;2024-01-15T14:55:09;92937.59;;;2.04;94.61
40384;BME280;26097;42.366;23.818;2024-01-15T14:58:09;92935.75;;;1.92;95.89
40384;BME280;26097;42.366;23.818;2024-01-15T15:01:08;92940.00;;;1.78;97.42
40384;BME280;26097;42.366;23.818;2024-01-15T15:04:08;92930.47;;;1.66;98.63
40384;BME280;26097;42.366;23.818;2024-01-15T15:07:09;92924.41;;;1.52;100.00
40384;BME280;26097;42.366;23.818;2024-01-15T15:10:09;92931.19;;;1.39;100.00
40384;BME280;26097;42.366;23.818;2024-01-15T15:13:10;92927.56;;;1.27;100.00
40384;BME280;26097;42.366;23.818;2024-01-15T15:16:09;92922.78;;;1.06;100.00
40384;BME280;26097;42.366;23.818;2024-01-15T15:19:09;92928.53;;;0.95;100.00
40384;BME280;26097;42.366;23.818;2024-01-15T15:22:08;92911.28;;;0.83;100.00
40384;BME280;26097;42.366;23.818;2024-01-15T15:25:09;92918.94;;;0.68;100.00
40384;BME280;26097;42.366;23.818;2024-01-15T15:28:09;92911.00;;;0.57;100.00
40384;BME280;26097;42.366;23.818;2024-01-15T15:31:10;92928.00;;;0.44;100.00
40384;BME280;26097;42.366;23.818;2024-01-15T15:34:10;92920.50;;;0.24;100.00
40384;BME280;26097;42.366;23.818;2024-01-15T15:37:10;92922.56;;;0.02;100.00
40384;BME280;26097;42.366;23.818;2024-01-15T15:40:10;92914.63;;;-0.10;100.00
40384;BME280;26097;42.366;23.818;2024-01-15T15:43:10;92910.75;;;-0.33;100.00
40384;BME280;26097;42.366;23.818;2024-01-15T15:46:09;92925.09;;;-0.47;100.00
40384;BME280;26097;42.366;23.818;2024-01-15T15:49:09;92920.34;;;-0.70;100.00